sensor_id;sensor_type;location;lat;lon;timestamp;P1;durP1;ratioP1;P2;durP2;ratioP2
40044;SDS011;25735;48.122;11.422;2022-08-19T00:02:01;8.93;;;8.03;;
40044;SDS011;25735;48.122;11.422;2022-08-19T00:04:28;8.75;;;7.72;;
40044;SDS011;25735;48.122;11.422;2022-08-19T00:06:53;9.32;;;8.32;;
40044;SDS011;25735;48.122;11.422;2022-08-19T00:09:19;9.15;;;7.53;;
40044;SDS011;25735;48.122;11.422;2022-08-19T00:11:45;9.73;;;8.68;;
40044;SDS011;25735;48.122;11.422;2022-08-19T00:14:11;9.13;;;7.63;;
40044;SDS011;25735;48.122;11.422;2022-08-19T00:16:37;7.88;;;7.13;;
40044;SDS011;25735;48.122;11.422;2022-08-19T00:19:03;9.93;;;7.45;;
40044;SDS011;25735;48.122;11.422;2022-08-19T00:21:28;8.75;;;7.90;;
40044;SDS011;25735;48.122;11.422;2022-08-19T00:23:54;8.83;;;8.00;;
40044;SDS011;25735;48.122;11.422;2022-08-19T00:26:22;9.40;;;8.35;;
40044;SDS011;25735;48.122;11.422;2022-08-19T00:28:47;9.87;;;8.37;;
40044;SDS011;25735;48.122;11.422;2022-08-19T00:31:12;9.33;;;8.23;;
40044;SDS011;25735;48.122;11.422;2022-08-19T00:33:38;8.87;;;7.97;;
40044;SDS011;25735;48.122;11.422;2022-08-19T00:36:05;8.95;;;8.07;;
40044;SDS011;25735;48.122;11.422;2022-08-19T00:38:31;9.52;;;8.52;;
40044;SDS011;25735;48.122;11.422;2022-08-19T00:40:56;8.73;;;7.82;;
40044;SDS011;25735;48.122;11.422;2022-08-19T00:43:23;10.00;;;8.03;;
40044;SDS011;25735;48.122;11.422;2022-08-19T00:45:48;9.57;;;8.68;;
40044;SDS011;25735;48.122;11.422;2022-08-19T00:48:14;8.93;;;8.02;;
40044;SDS011;25735;48.122;11.422;2022-08-19T00:50:41;10.20;;;9.18;;
40044;SDS011;25735;48.122;11.422;2022-08-19T00:53:08;10.68;;;8.63;;
40044;SDS011;25735;48.122;11.422;2022-08-19T00:55:34;9.63;;;8.73;;
40044;SDS011;25735;48.122;11.422;2022-08-19T00:58:00;10.73;;;9.50;;
40044;SDS011;25735;48.122;11.422;2022-08-19T01:00:27;10.27;;;9.20;;
40044;SDS011;25735;48.122;11.422;2022-08-19T01:02:52;10.43;;;9.43;;
40044;SDS011;25735;48.122;11.422;2022-08-19T01:05:19;10.32;;;8.90;;
40044;SDS011;25735;48.122;11.422;2022-08-19T01:07:46;11.00;;;9.70;;
40044;SDS011;25735;48.122;11.422;2022-08-19T01:10:14;11.02;;;9.93;;
40044;SDS011;25735;48.122;11.422;2022-08-19T01:12:40;9.88;;;8.88;;
40044;SDS011;25735;48.122;11.422;2022-08-19T01:15:06;10.25;;;9.15;;
40044;SDS011;25735;48.122;11.422;2022-08-19T01:17:32;17.33;;;10.77;;
40044;SDS011;25735;48.122;11.422;2022-08-19T01:19:57;12.52;;;9.25;;
40044;SDS011;25735;48.122;11.422;2022-08-19T01:24:48;11.38;;;10.00;;
40044;SDS011;25735;48.122;11.422;2022-08-19T01:27:13;11.07;;;9.95;;
40044;SDS011;25735;48.122;11.422;2022-08-19T01:29:40;11.18;;;9.98;;
40044;SDS011;25735;48.122;11.422;2022-08-19T01:32:05;11.15;;;9.52;;
40044;SDS011;25735;48.122;11.422;2022-08-19T01:34:31;11.02;;;9.43;;
40044;SDS011;25735;48.122;11.422;2022-08-19T01:36:59;11.40;;;10.13;;
40044;SDS011;25735;48.122;11.422;2022-08-19T01:39:26;12.05;;;9.88;;
40044;SDS011;25735;48.122;11.422;2022-08-19T01:41:51;11.00;;;9.90;;
40044;SDS011;25735;48.122;11.422;2022-08-19T01:44:20;10.88;;;9.70;;
40044;SDS011;25735;48.122;11.422;2022-08-19T01:46:49;12.25;;;10.02;;
40044;SDS011;25735;48.122;11.422;2022-08-19T01:49:15;11.20;;;9.43;;
40044;SDS011;25735;48.122;11.422;2022-08-19T01:51:40;11.50;;;10.30;;
40044;SDS011;25735;48.122;11.422;2022-08-19T01:54:09;10.93;;;9.83;;
40044;SDS011;25735;48.122;11.422;2022-08-19T01:56:34;10.43;;;9.35;;
40044;SDS011;25735;48.122;11.422;2022-08-19T01:59:00;10.63;;;8.63;;
40044;SDS011;25735;48.122;11.422;2022-08-19T02:01:26;10.02;;;9.02;;
40044;SDS011;25735;48.122;11.422;2022-08-19T02:03:51;9.77;;;8.80;;
40044;SDS011;25735;48.122;11.422;2022-08-19T02:06:18;11.68;;;9.00;;
40044;SDS011;25735;48.122;11.422;2022-08-19T02:08:43;10.95;;;8.65;;
40044;SDS011;25735;48.122;11.422;2022-08-19T02:11:17;8.75;;;7.85;;
40044;SDS011;25735;48.122;11.422;2022-08-19T02:13:43;9.15;;;8.25;;
40044;SDS011;25735;48.122;11.422;2022-08-19T02:16:08;8.80;;;7.77;;
40044;SDS011;25735;48.122;11.422;2022-08-19T02:18:33;9.40;;;7.63;;
40044;SDS011;25735;48.122;11.422;2022-08-19T02:20:58;8.45;;;7.60;;
40044;SDS011;25735;48.122;11.422;2022-08-19T02:23:23;8.83;;;7.93;;
40044;SDS011;25735;48.122;11.422;2022-08-19T02:25:49;8.38;;;7.55;;
40044;SDS011;25735;48.122;11.422;2022-08-19T02:28:14;9.50;;;7.78;;
40044;SDS011;25735;48.122;11.422;2022-08-19T02:30:40;8.68;;;7.85;;
40044;SDS011;25735;48.122;11.422;2022-08-19T02:33:06;8.00;;;7.20;;
40044;SDS011;25735;48.122;11.422;2022-08-19T02:35:31;9.30;;;7.70;;
40044;SDS011;25735;48.122;11.422;2022-08-19T02:37:56;9.90;;;8.33;;
40044;SDS011;25735;48.122;11.422;2022-08-19T02:40:40;8.50;;;7.70;;
40044;SDS011;25735;48.122;11.422;2022-08-19T02:43:06;7.37;;;6.67;;
40044;SDS011;25735;48.122;11.422;2022-08-19T02:45:36;7.70;;;6.72;;
40044;SDS011;25735;48.122;11.422;2022-08-19T02:48:01;9.27;;;7.10;;
40044;SDS011;25735;48.122;11.422;2022-08-19T02:50:27;7.72;;;6.53;;
40044;SDS011;25735;48.122;11.422;2022-08-19T02:52:52;7.03;;;6.35;;
40044;SDS011;25735;48.122;11.422;2022-08-19T02:55:17;8.18;;;6.28;;
40044;SDS011;25735;48.122;11.422;2022-08-19T02:57:43;9.05;;;6.63;;
40044;SDS011;25735;48.122;11.422;2022-08-19T03:00:09;7.53;;;6.82;;
40044;SDS011;25735;48.122;11.422;2022-08-19T03:02:37;8.43;;;6.50;;
40044;SDS011;25735;48.122;11.422;2022-08-19T03:05:03;8.38;;;6.90;;
40044;SDS011;25735;48.122;11.422;2022-08-19T03:07:28;7.40;;;6.50;;
40044;SDS011;25735;48.122;11.422;2022-08-19T03:09:54;9.18;;;6.78;;
40044;SDS011;25735;48.122;11.422;2022-08-19T03:12:19;8.48;;;6.65;;
40044;SDS011;25735;48.122;11.422;2022-08-19T03:14:44;7.03;;;6.33;;
40044;SDS011;25735;48.122;11.422;2022-08-19T03:17:11;9.95;;;6.43;;
40044;SDS011;25735;48.122;11.422;2022-08-19T03:19:37;8.13;;;6.68;;
40044;SDS011;25735;48.122;11.422;2022-08-19T03:22:03;6.43;;;5.75;;
40044;SDS011;25735;48.122;11.422;2022-08-19T03:24:29;8.35;;;6.38;;
40044;SDS011;25735;48.122;11.422;2022-08-19T03:26:55;7.60;;;6.80;;
40044;SDS011;25735;48.122;11.422;2022-08-19T03:29:24;8.10;;;6.20;;
40044;SDS011;25735;48.122;11.422;2022-08-19T03:31:49;8.00;;;6.55;;
40044;SDS011;25735;48.122;11.422;2022-08-19T03:34:18;6.88;;;6.25;;
40044;SDS011;25735;48.122;11.422;2022-08-19T03:36:44;7.50;;;6.47;;
40044;SDS011;25735;48.122;11.422;2022-08-19T03:39:09;6.55;;;5.95;;
40044;SDS011;25735;48.122;11.422;2022-08-19T03:41:36;6.38;;;5.75;;
40044;SDS011;25735;48.122;11.422;2022-08-19T03:44:02;7.40;;;6.22;;
40044;SDS011;25735;48.122;11.422;2022-08-19T03:46:28;6.32;;;5.72;;
40044;SDS011;25735;48.122;11.422;2022-08-19T03:48:55;7.88;;;6.25;;
40044;SDS011;25735;48.122;11.422;2022-08-19T03:51:22;6.25;;;5.65;;
40044;SDS011;25735;48.122;11.422;2022-08-19T03:53:48;7.07;;;6.38;;
40044;SDS011;25735;48.122;11.422;2022-08-19T03:56:13;6.95;;;6.03;;
40044;SDS011;25735;48.122;11.422;2022-08-19T03:58:39;7.35;;;6.57;;
40044;SDS011;25735;48.122;11.422;2022-08-19T04:01:07;7.65;;;6.85;;
40044;SDS011;25735;48.122;11.422;2022-08-19T04:03:32;7.90;;;6.55;;
40044;SDS011;25735;48.122;11.422;2022-08-19T04:05:58;8.40;;;6.43;;
40044;SDS011;25735;48.122;11.422;2022-08-19T04:08:23;8.23;;;7.33;;
40044;SDS011;25735;48.122;11.422;2022-08-19T04:10:48;8.68;;;7.25;;
40044;SDS011;25735;48.122;11.422;2022-08-19T04:13:17;9.85;;;7.93;;
40044;SDS011;25735;48.122;11.422;2022-08-19T04:15:43;9.07;;;6.95;;
40044;SDS011;25735;48.122;11.422;2022-08-19T04:18:09;8.10;;;7.30;;
40044;SDS011;25735;48.122;11.422;2022-08-19T04:20:38;7.90;;;6.60;;
40044;SDS011;25735;48.122;11.422;2022-08-19T04:23:04;8.23;;;6.75;;
40044;SDS011;25735;48.122;11.422;2022-08-19T04:25:34;8.00;;;7.20;;
40044;SDS011;25735;48.122;11.422;2022-08-19T04:27:59;8.00;;;6.88;;
40044;SDS011;25735;48.122;11.422;2022-08-19T04:30:24;10.73;;;8.38;;
40044;SDS011;25735;48.122;11.422;2022-08-19T04:32:49;8.17;;;7.30;;
40044;SDS011;25735;48.122;11.422;2022-08-19T04:35:15;9.93;;;7.80;;
40044;SDS011;25735;48.122;11.422;2022-08-19T04:37:40;9.73;;;8.33;;
40044;SDS011;25735;48.122;11.422;2022-08-19T04:40:06;8.98;;;7.60;;
40044;SDS011;25735;48.122;11.422;2022-08-19T04:42:50;8.57;;;7.68;;
40044;SDS011;25735;48.122;11.422;2022-08-19T04:45:16;10.13;;;8.32;;
40044;SDS011;25735;48.122;11.422;2022-08-19T04:47:42;8.23;;;7.43;;
40044;SDS011;25735;48.122;11.422;2022-08-19T04:50:09;9.07;;;7.30;;
40044;SDS011;25735;48.122;11.422;2022-08-19T04:52:35;11.13;;;8.43;;
40044;SDS011;25735;48.122;11.422;2022-08-19T04:55:01;9.23;;;8.27;;
40044;SDS011;25735;48.122;11.422;2022-08-19T04:57:26;12.27;;;9.45;;
40044;SDS011;25735;48.122;11.422;2022-08-19T04:59:55;8.90;;;8.00;;
40044;SDS011;25735;48.122;11.422;2022-08-19T05:02:20;8.57;;;7.60;;
40044;SDS011;25735;48.122;11.422;2022-08-19T05:04:47;9.18;;;8.23;;
40044;SDS011;25735;48.122;11.422;2022-08-19T05:07:13;11.20;;;8.45;;
40044;SDS011;25735;48.122;11.422;2022-08-19T05:09:38;8.60;;;6.75;;
40044;SDS011;25735;48.122;11.422;2022-08-19T05:12:03;9.23;;;7.38;;
40044;SDS011;25735;48.122;11.422;2022-08-19T05:14:29;8.80;;;7.90;;
40044;SDS011;25735;48.122;11.422;2022-08-19T05:16:54;8.98;;;7.95;;
40044;SDS011;25735;48.122;11.422;2022-08-19T05:19:19;9.63;;;8.47;;
40044;SDS011;25735;48.122;11.422;2022-08-19T05:22:03;8.85;;;7.57;;
40044;SDS011;25735;48.122;11.422;2022-08-19T05:24:47;7.57;;;6.88;;
40044;SDS011;25735;48.122;11.422;2022-08-19T05:27:12;7.83;;;7.03;;
40044;SDS011;25735;48.122;11.422;2022-08-19T05:29:37;9.30;;;8.37;;
40044;SDS011;25735;48.122;11.422;2022-08-19T05:32:03;8.50;;;7.70;;
40044;SDS011;25735;48.122;11.422;2022-08-19T05:34:29;8.57;;;7.68;;
40044;SDS011;25735;48.122;11.422;2022-08-19T05:36:57;9.68;;;8.10;;
40044;SDS011;25735;48.122;11.422;2022-08-19T05:39:25;8.68;;;7.57;;
40044;SDS011;25735;48.122;11.422;2022-08-19T05:41:51;10.55;;;8.00;;
40044;SDS011;25735;48.122;11.422;2022-08-19T05:44:18;9.35;;;8.18;;
40044;SDS011;25735;48.122;11.422;2022-08-19T05:46:45;8.60;;;7.75;;
40044;SDS011;25735;48.122;11.422;2022-08-19T05:49:13;11.07;;;8.05;;
40044;SDS011;25735;48.122;11.422;2022-08-19T05:51:38;8.65;;;7.70;;
40044;SDS011;25735;48.122;11.422;2022-08-19T05:54:04;8.57;;;7.63;;
40044;SDS011;25735;48.122;11.422;2022-08-19T05:56:30;9.73;;;8.73;;
40044;SDS011;25735;48.122;11.422;2022-08-19T05:58:56;13.45;;;9.07;;
40044;SDS011;25735;48.122;11.422;2022-08-19T06:01:21;10.65;;;9.55;;
40044;SDS011;25735;48.122;11.422;2022-08-19T06:03:46;9.93;;;8.93;;
40044;SDS011;25735;48.122;11.422;2022-08-19T06:06:13;10.05;;;9.05;;
40044;SDS011;25735;48.122;11.422;2022-08-19T06:08:38;9.25;;;8.35;;
40044;SDS011;25735;48.122;11.422;2022-08-19T06:13:38;9.68;;;8.43;;
40044;SDS011;25735;48.122;11.422;2022-08-19T06:16:03;9.98;;;8.98;;
40044;SDS011;25735;48.122;11.422;2022-08-19T06:18:29;9.27;;;8.38;;
40044;SDS011;25735;48.122;11.422;2022-08-19T06:20:54;9.03;;;8.10;;
40044;SDS011;25735;48.122;11.422;2022-08-19T06:23:20;11.05;;;8.88;;
40044;SDS011;25735;48.122;11.422;2022-08-19T06:25:45;10.95;;;9.35;;
40044;SDS011;25735;48.122;11.422;2022-08-19T06:28:10;10.40;;;9.37;;
40044;SDS011;25735;48.122;11.422;2022-08-19T06:30:36;11.43;;;9.52;;
40044;SDS011;25735;48.122;11.422;2022-08-19T06:33:01;9.95;;;8.95;;
40044;SDS011;25735;48.122;11.422;2022-08-19T06:35:27;10.85;;;9.75;;
40044;SDS011;25735;48.122;11.422;2022-08-19T06:37:54;8.63;;;7.72;;
40044;SDS011;25735;48.122;11.422;2022-08-19T06:40:19;10.63;;;9.40;;
40044;SDS011;25735;48.122;11.422;2022-08-19T06:42:44;11.18;;;9.30;;
40044;SDS011;25735;48.122;11.422;2022-08-19T06:45:09;9.90;;;8.90;;
40044;SDS011;25735;48.122;11.422;2022-08-19T06:47:35;9.32;;;8.15;;
40044;SDS011;25735;48.122;11.422;2022-08-19T06:50:00;9.45;;;8.38;;
40044;SDS011;25735;48.122;11.422;2022-08-19T06:52:28;10.63;;;9.45;;
40044;SDS011;25735;48.122;11.422;2022-08-19T06:54:53;9.68;;;8.68;;
40044;SDS011;25735;48.122;11.422;2022-08-19T06:57:21;9.90;;;8.90;;
40044;SDS011;25735;48.122;11.422;2022-08-19T06:59:46;11.48;;;9.88;;
40044;SDS011;25735;48.122;11.422;2022-08-19T07:02:11;10.18;;;9.18;;
40044;SDS011;25735;48.122;11.422;2022-08-19T07:04:37;13.03;;;9.90;;
40044;SDS011;25735;48.122;11.422;2022-08-19T07:07:12;11.82;;;10.60;;
40044;SDS011;25735;48.122;11.422;2022-08-19T07:09:40;10.07;;;9.07;;
40044;SDS011;25735;48.122;11.422;2022-08-19T07:12:06;12.98;;;11.68;;
40044;SDS011;25735;48.122;11.422;2022-08-19T07:14:31;11.13;;;10.00;;
40044;SDS011;25735;48.122;11.422;2022-08-19T07:16:57;12.40;;;11.10;;
40044;SDS011;25735;48.122;11.422;2022-08-19T07:19:23;15.52;;;13.93;;
40044;SDS011;25735;48.122;11.422;2022-08-19T07:21:50;16.38;;;14.38;;
40044;SDS011;25735;48.122;11.422;2022-08-19T07:24:22;15.63;;;13.90;;
40044;SDS011;25735;48.122;11.422;2022-08-19T07:26:48;20.80;;;17.83;;
40044;SDS011;25735;48.122;11.422;2022-08-19T07:29:14;23.38;;;18.45;;
40044;SDS011;25735;48.122;11.422;2022-08-19T07:31:41;30.00;;;21.92;;
40044;SDS011;25735;48.122;11.422;2022-08-19T07:34:07;23.77;;;21.30;;
40044;SDS011;25735;48.122;11.422;2022-08-19T07:36:33;23.42;;;20.65;;
40044;SDS011;25735;48.122;11.422;2022-08-19T07:39:00;24.85;;;21.83;;
40044;SDS011;25735;48.122;11.422;2022-08-19T07:41:27;28.90;;;21.83;;
40044;SDS011;25735;48.122;11.422;2022-08-19T07:43:53;24.88;;;21.88;;
40044;SDS011;25735;48.122;11.422;2022-08-19T07:46:19;25.17;;;21.95;;
40044;SDS011;25735;48.122;11.422;2022-08-19T07:48:46;29.05;;;22.80;;
40044;SDS011;25735;48.122;11.422;2022-08-19T07:51:14;28.70;;;21.42;;
40044;SDS011;25735;48.122;11.422;2022-08-19T07:53:41;31.75;;;23.30;;
40044;SDS011;25735;48.122;11.422;2022-08-19T07:56:08;24.42;;;20.58;;
40044;SDS011;25735;48.122;11.422;2022-08-19T07:58:35;25.92;;;21.50;;
40044;SDS011;25735;48.122;11.422;2022-08-19T08:01:01;24.83;;;20.88;;
40044;SDS011;25735;48.122;11.422;2022-08-19T08:03:27;25.80;;;20.98;;
40044;SDS011;25735;48.122;11.422;2022-08-19T08:06:12;21.60;;;19.00;;
40044;SDS011;25735;48.122;11.422;2022-08-19T08:08:56;25.30;;;20.13;;
40044;SDS011;25735;48.122;11.422;2022-08-19T08:11:41;23.13;;;19.50;;
40044;SDS011;25735;48.122;11.422;2022-08-19T08:14:07;23.15;;;20.50;;
40044;SDS011;25735;48.122;11.422;2022-08-19T08:16:35;22.52;;;18.83;;
40044;SDS011;25735;48.122;11.422;2022-08-19T08:19:03;25.60;;;20.50;;
40044;SDS011;25735;48.122;11.422;2022-08-19T08:21:28;23.35;;;19.25;;
40044;SDS011;25735;48.122;11.422;2022-08-19T08:23:53;23.10;;;19.77;;
40044;SDS011;25735;48.122;11.422;2022-08-19T08:26:20;20.58;;;18.13;;
40044;SDS011;25735;48.122;11.422;2022-08-19T08:28:45;20.98;;;18.77;;
40044;SDS011;25735;48.122;11.422;2022-08-19T08:31:13;24.05;;;19.45;;
40044;SDS011;25735;48.122;11.422;2022-08-19T08:33:38;22.60;;;18.17;;
40044;SDS011;25735;48.122;11.422;2022-08-19T08:36:07;22.47;;;18.80;;
40044;SDS011;25735;48.122;11.422;2022-08-19T08:38:32;26.55;;;21.00;;
40044;SDS011;25735;48.122;11.422;2022-08-19T08:41:05;21.75;;;18.80;;
40044;SDS011;25735;48.122;11.422;2022-08-19T08:43:34;25.23;;;20.77;;
40044;SDS011;25735;48.122;11.422;2022-08-19T08:48:36;23.00;;;19.73;;
40044;SDS011;25735;48.122;11.422;2022-08-19T08:51:03;23.38;;;20.00;;
40044;SDS011;25735;48.122;11.422;2022-08-19T08:53:30;25.75;;;21.38;;
40044;SDS011;25735;48.122;11.422;2022-08-19T08:55:56;28.48;;;20.48;;
40044;SDS011;25735;48.122;11.422;2022-08-19T08:58:26;24.20;;;18.65;;
40044;SDS011;25735;48.122;11.422;2022-08-19T09:00:53;30.35;;;22.67;;
40044;SDS011;25735;48.122;11.422;2022-08-19T09:03:19;24.10;;;19.23;;
40044;SDS011;25735;48.122;11.422;2022-08-19T09:06:00;26.85;;;21.15;;
40044;SDS011;25735;48.122;11.422;2022-08-19T09:10:55;25.08;;;19.95;;
40044;SDS011;25735;48.122;11.422;2022-08-19T09:13:32;23.45;;;19.30;;
40044;SDS011;25735;48.122;11.422;2022-08-19T09:16:06;23.77;;;19.33;;
40044;SDS011;25735;48.122;11.422;2022-08-19T09:18:42;24.30;;;19.10;;
40044;SDS011;25735;48.122;11.422;2022-08-19T09:21:09;21.38;;;18.33;;
40044;SDS011;25735;48.122;11.422;2022-08-19T09:23:35;24.67;;;18.80;;
40044;SDS011;25735;48.122;11.422;2022-08-19T09:26:00;24.10;;;19.67;;
40044;SDS011;25735;48.122;11.422;2022-08-19T09:28:25;23.48;;;19.73;;
40044;SDS011;25735;48.122;11.422;2022-08-19T09:30:50;22.87;;;19.03;;
40044;SDS011;25735;48.122;11.422;2022-08-19T09:33:16;21.33;;;18.33;;
40044;SDS011;25735;48.122;11.422;2022-08-19T09:35:41;24.77;;;19.63;;
40044;SDS011;25735;48.122;11.422;2022-08-19T09:38:06;22.33;;;18.67;;
40044;SDS011;25735;48.122;11.422;2022-08-19T09:40:31;25.40;;;19.48;;
40044;SDS011;25735;48.122;11.422;2022-08-19T09:42:57;22.27;;;18.92;;
40044;SDS011;25735;48.122;11.422;2022-08-19T09:45:24;24.15;;;19.60;;
40044;SDS011;25735;48.122;11.422;2022-08-19T09:47:50;21.17;;;18.10;;
40044;SDS011;25735;48.122;11.422;2022-08-19T09:50:16;22.00;;;18.45;;
40044;SDS011;25735;48.122;11.422;2022-08-19T09:52:42;23.77;;;19.88;;
40044;SDS011;25735;48.122;11.422;2022-08-19T09:55:09;24.20;;;19.10;;
40044;SDS011;25735;48.122;11.422;2022-08-19T09:57:34;27.55;;;21.30;;
40044;SDS011;25735;48.122;11.422;2022-08-19T09:59:59;23.27;;;19.95;;
40044;SDS011;25735;48.122;11.422;2022-08-19T10:02:24;25.80;;;19.63;;
40044;SDS011;25735;48.122;11.422;2022-08-19T10:04:50;30.07;;;22.50;;
40044;SDS011;25735;48.122;11.422;2022-08-19T10:07:34;27.27;;;20.77;;
40044;SDS011;25735;48.122;11.422;2022-08-19T10:10:00;26.23;;;20.52;;
40044;SDS011;25735;48.122;11.422;2022-08-19T10:12:25;29.10;;;22.15;;
40044;SDS011;25735;48.122;11.422;2022-08-19T10:14:50;27.10;;;21.17;;
40044;SDS011;25735;48.122;11.422;2022-08-19T10:17:18;29.13;;;22.13;;
40044;SDS011;25735;48.122;11.422;2022-08-19T10:19:43;25.83;;;20.33;;
40044;SDS011;25735;48.122;11.422;2022-08-19T10:22:08;24.95;;;19.25;;
40044;SDS011;25735;48.122;11.422;2022-08-19T10:24:36;25.48;;;19.67;;
40044;SDS011;25735;48.122;11.422;2022-08-19T10:27:01;21.75;;;17.95;;
40044;SDS011;25735;48.122;11.422;2022-08-19T10:29:30;21.02;;;17.95;;
40044;SDS011;25735;48.122;11.422;2022-08-19T10:31:56;20.90;;;17.13;;
40044;SDS011;25735;48.122;11.422;2022-08-19T10:34:22;19.58;;;16.13;;
40044;SDS011;25735;48.122;11.422;2022-08-19T10:36:48;21.00;;;16.38;;
40044;SDS011;25735;48.122;11.422;2022-08-19T10:39:13;16.43;;;14.70;;
40044;SDS011;25735;48.122;11.422;2022-08-19T10:41:38;15.07;;;13.40;;
40044;SDS011;25735;48.122;11.422;2022-08-19T10:44:05;17.13;;;13.45;;
40044;SDS011;25735;48.122;11.422;2022-08-19T10:46:31;13.00;;;11.52;;
40044;SDS011;25735;48.122;11.422;2022-08-19T10:48:57;15.65;;;13.75;;
40044;SDS011;25735;48.122;11.422;2022-08-19T10:51:23;16.17;;;13.45;;
40044;SDS011;25735;48.122;11.422;2022-08-19T10:54:07;17.25;;;13.68;;
40044;SDS011;25735;48.122;11.422;2022-08-19T10:56:32;15.30;;;13.83;;
40044;SDS011;25735;48.122;11.422;2022-08-19T10:59:16;16.08;;;14.25;;
40044;SDS011;25735;48.122;11.422;2022-08-19T11:01:43;15.65;;;13.38;;
40044;SDS011;25735;48.122;11.422;2022-08-19T11:04:08;14.13;;;12.63;;
40044;SDS011;25735;48.122;11.422;2022-08-19T11:06:38;14.25;;;11.85;;
40044;SDS011;25735;48.122;11.422;2022-08-19T11:09:04;12.50;;;11.20;;
40044;SDS011;25735;48.122;11.422;2022-08-19T11:11:29;12.02;;;10.82;;
40044;SDS011;25735;48.122;11.422;2022-08-19T11:13:55;9.60;;;8.40;;
40044;SDS011;25735;48.122;11.422;2022-08-19T11:16:21;9.57;;;8.57;;
40044;SDS011;25735;48.122;11.422;2022-08-19T11:18:48;7.18;;;6.57;;
40044;SDS011;25735;48.122;11.422;2022-08-19T11:21:17;5.35;;;4.82;;
40044;SDS011;25735;48.122;11.422;2022-08-19T11:23:44;5.72;;;5.22;;
40044;SDS011;25735;48.122;11.422;2022-08-19T11:26:10;6.50;;;5.10;;
40044;SDS011;25735;48.122;11.422;2022-08-19T11:28:36;6.28;;;5.40;;
40044;SDS011;25735;48.122;11.422;2022-08-19T11:31:01;4.75;;;4.35;;
40044;SDS011;25735;48.122;11.422;2022-08-19T11:33:28;4.47;;;4.00;;
40044;SDS011;25735;48.122;11.422;2022-08-19T11:35:53;5.23;;;4.73;;
40044;SDS011;25735;48.122;11.422;2022-08-19T11:38:19;5.18;;;3.60;;
40044;SDS011;25735;48.122;11.422;2022-08-19T11:40:44;3.45;;;3.15;;
40044;SDS011;25735;48.122;11.422;2022-08-19T11:43:09;4.10;;;3.80;;
40044;SDS011;25735;48.122;11.422;2022-08-19T11:45:34;3.70;;;3.40;;
40044;SDS011;25735;48.122;11.422;2022-08-19T11:48:00;2.90;;;2.70;;
40044;SDS011;25735;48.122;11.422;2022-08-19T11:50:26;2.67;;;2.47;;
40044;SDS011;25735;48.122;11.422;2022-08-19T11:52:55;2.17;;;2.07;;
40044;SDS011;25735;48.122;11.422;2022-08-19T11:55:20;1.13;;;1.02;;
40044;SDS011;25735;48.122;11.422;2022-08-19T11:57:45;1.50;;;1.40;;
40044;SDS011;25735;48.122;11.422;2022-08-19T12:00:12;1.63;;;1.52;;
40044;SDS011;25735;48.122;11.422;2022-08-19T12:02:38;1.70;;;1.55;;
40044;SDS011;25735;48.122;11.422;2022-08-19T12:05:03;1.27;;;1.17;;
40044;SDS011;25735;48.122;11.422;2022-08-19T12:07:29;1.25;;;1.20;;
40044;SDS011;25735;48.122;11.422;2022-08-19T12:09:57;1.40;;;1.23;;
40044;SDS011;25735;48.122;11.422;2022-08-19T12:12:23;1.33;;;1.23;;
40044;SDS011;25735;48.122;11.422;2022-08-19T12:14:49;2.70;;;1.48;;
40044;SDS011;25735;48.122;11.422;2022-08-19T12:19:46;1.42;;;1.33;;
40044;SDS011;25735;48.122;11.422;2022-08-19T12:22:11;1.43;;;1.33;;
40044;SDS011;25735;48.122;11.422;2022-08-19T12:24:37;1.52;;;1.42;;
40044;SDS011;25735;48.122;11.422;2022-08-19T12:27:02;1.03;;;0.90;;
40044;SDS011;25735;48.122;11.422;2022-08-19T12:29:28;2.15;;;1.50;;
40044;SDS011;25735;48.122;11.422;2022-08-19T12:31:54;1.33;;;1.23;;
40044;SDS011;25735;48.122;11.422;2022-08-19T12:34:25;1.70;;;1.40;;
40044;SDS011;25735;48.122;11.422;2022-08-19T12:36:50;1.63;;;1.52;;
40044;SDS011;25735;48.122;11.422;2022-08-19T12:39:16;1.63;;;1.52;;
40044;SDS011;25735;48.122;11.422;2022-08-19T12:41:41;1.80;;;1.70;;
40044;SDS011;25735;48.122;11.422;2022-08-19T12:44:06;1.70;;;1.47;;
40044;SDS011;25735;48.122;11.422;2022-08-19T12:46:31;1.17;;;1.17;;
40044;SDS011;25735;48.122;11.422;2022-08-19T12:48:56;1.40;;;1.30;;
40044;SDS011;25735;48.122;11.422;2022-08-19T12:51:22;1.83;;;1.73;;
40044;SDS011;25735;48.122;11.422;2022-08-19T12:53:47;1.80;;;1.70;;
40044;SDS011;25735;48.122;11.422;2022-08-19T12:56:12;1.75;;;1.65;;
40044;SDS011;25735;48.122;11.422;2022-08-19T12:58:41;1.42;;;1.33;;
40044;SDS011;25735;48.122;11.422;2022-08-19T13:01:10;1.50;;;1.40;;
40044;SDS011;25735;48.122;11.422;2022-08-19T13:03:36;1.77;;;1.67;;
40044;SDS011;25735;48.122;11.422;2022-08-19T13:06:01;2.20;;;1.90;;
40044;SDS011;25735;48.122;11.422;2022-08-19T13:08:26;2.10;;;1.73;;
40044;SDS011;25735;48.122;11.422;2022-08-19T13:10:52;2.05;;;1.45;;
40044;SDS011;25735;48.122;11.422;2022-08-19T13:13:18;1.80;;;1.70;;
40044;SDS011;25735;48.122;11.422;2022-08-19T13:15:43;2.03;;;1.52;;
40044;SDS011;25735;48.122;11.422;2022-08-19T13:18:10;1.73;;;1.45;;
40044;SDS011;25735;48.122;11.422;2022-08-19T13:20:36;1.90;;;1.80;;
40044;SDS011;25735;48.122;11.422;2022-08-19T13:23:02;2.00;;;1.88;;
40044;SDS011;25735;48.122;11.422;2022-08-19T13:25:27;2.13;;;2.03;;
40044;SDS011;25735;48.122;11.422;2022-08-19T13:27:52;2.30;;;2.10;;
40044;SDS011;25735;48.122;11.422;2022-08-19T13:30:18;2.22;;;2.03;;
40044;SDS011;25735;48.122;11.422;2022-08-19T13:33:02;2.83;;;2.53;;
40044;SDS011;25735;48.122;11.422;2022-08-19T13:35:41;1.90;;;1.80;;
40044;SDS011;25735;48.122;11.422;2022-08-19T13:38:07;2.05;;;1.90;;
40044;SDS011;25735;48.122;11.422;2022-08-19T13:40:32;2.30;;;2.10;;
40044;SDS011;25735;48.122;11.422;2022-08-19T13:43:01;2.58;;;2.38;;
40044;SDS011;25735;48.122;11.422;2022-08-19T13:45:27;1.80;;;1.70;;
40044;SDS011;25735;48.122;11.422;2022-08-19T13:47:53;2.15;;;1.83;;
40044;SDS011;25735;48.122;11.422;2022-08-19T13:50:21;2.30;;;2.10;;
40044;SDS011;25735;48.122;11.422;2022-08-19T13:52:47;2.50;;;2.30;;
40044;SDS011;25735;48.122;11.422;2022-08-19T13:55:13;3.03;;;2.72;;
40044;SDS011;25735;48.122;11.422;2022-08-19T13:57:38;5.30;;;2.63;;
40044;SDS011;25735;48.122;11.422;2022-08-19T14:00:04;2.95;;;2.75;;
40044;SDS011;25735;48.122;11.422;2022-08-19T14:02:30;2.67;;;2.47;;
40044;SDS011;25735;48.122;11.422;2022-08-19T14:04:55;2.30;;;2.15;;
40044;SDS011;25735;48.122;11.422;2022-08-19T14:07:20;1.83;;;1.73;;
40044;SDS011;25735;48.122;11.422;2022-08-19T14:09:48;2.35;;;2.15;;
40044;SDS011;25735;48.122;11.422;2022-08-19T14:12:13;2.00;;;1.90;;
40044;SDS011;25735;48.122;11.422;2022-08-19T14:14:38;1.80;;;1.30;;
40044;SDS011;25735;48.122;11.422;2022-08-19T14:17:07;2.10;;;2.00;;
40044;SDS011;25735;48.122;11.422;2022-08-19T14:19:33;1.83;;;1.70;;
40044;SDS011;25735;48.122;11.422;2022-08-19T14:21:58;1.70;;;1.60;;
40044;SDS011;25735;48.122;11.422;2022-08-19T14:24:23;1.50;;;1.23;;
40044;SDS011;25735;48.122;11.422;2022-08-19T14:26:48;1.07;;;1.03;;
40044;SDS011;25735;48.122;11.422;2022-08-19T14:29:13;1.52;;;1.42;;
40044;SDS011;25735;48.122;11.422;2022-08-19T14:31:39;1.90;;;1.80;;
40044;SDS011;25735;48.122;11.422;2022-08-19T14:34:05;1.70;;;1.60;;
40044;SDS011;25735;48.122;11.422;2022-08-19T14:36:31;1.70;;;1.60;;